Time;durP1;ratioP1;P1;durP2;ratioP2;P2;SDS_P1;SDS_P2;PMS_P1;PMS_P2;Temp;Humidity;BMP_temperature;BMP_pressure;BME280_temperature;BME280_humidity;BME280_pressure;Samples;Min_cycle;Max_cycle;Signal;HPM_P1;HPM_P2
2022/10/08 00:00:28;;;;;;;11.93;3.55;;;;;;;;;;5086175;28;20023;-55
2022/10/08 00:02:53;;;;;;;11.23;3.35;;;;;;;;;;5092375;28;20066;-55
2022/10/08 00:05:19;;;;;;;15.75;3.38;;;;;;;;;;5089611;28;20433;-55
2022/10/08 00:07:46;;;;;;;10.50;3.20;;;;;;;;;;5086780;28;20048;-55
2022/10/08 00:10:11;;;;;;;12.27;3.42;;;;;;;;;;5093455;28;20069;-55
2022/10/08 00:12:37;;;;;;;7.13;3.20;;;;;;;;;;5082780;28;20021;-56
2022/10/08 00:15:02;;;;;;;7.40;2.70;;;;;;;;;;5091231;28;20479;-56
2022/10/08 00:17:28;;;;;;;11.18;2.92;;;;;;;;;;5092937;28;20431;-55
2022/10/08 00:19:53;;;;;;;9.73;2.80;;;;;;;;;;5092177;28;20567;-56
2022/10/08 00:22:18;;;;;;;11.15;2.90;;;;;;;;;;5088280;28;20107;-54
2022/10/08 00:24:45;;;;;;;8.70;3.33;;;;;;;;;;5091563;28;20111;-55
2022/10/08 00:27:11;;;;;;;9.27;3.38;;;;;;;;;;5091994;28;20126;-54
2022/10/08 00:29:36;;;;;;;14.50;3.58;;;;;;;;;;5091989;28;20024;-56
2022/10/08 00:32:02;;;;;;;10.27;3.47;;;;;;;;;;5087472;28;20079;-54
2022/10/08 00:34:27;;;;;;;11.18;2.85;;;;;;;;;;5092218;28;20020;-52
2022/10/08 00:36:53;;;;;;;15.68;4.43;;;;;;;;;;5086288;28;20016;-55
2022/10/08 00:39:18;;;;;;;11.45;2.83;;;;;;;;;;5087366;28;20019;-54
2022/10/08 00:41:44;;;;;;;37.53;4.47;;;;;;;;;;5093659;28;20020;-55
2022/10/08 00:44:28;;;;;;;8.27;3.35;;;;;;;;;;5087785;28;20029;-55
2022/10/08 00:46:53;;;;;;;16.42;3.90;;;;;;;;;;5085483;28;20635;-54
2022/10/08 00:49:19;;;;;;;8.32;3.33;;;;;;;;;;5089168;28;20029;-55
2022/10/08 00:51:46;;;;;;;12.40;3.63;;;;;;;;;;5092931;28;20020;-55
2022/10/08 00:54:11;;;;;;;9.07;3.22;;;;;;;;;;5088822;28;20012;-55
2022/10/08 00:56:37;;;;;;;12.13;4.20;;;;;;;;;;5099321;28;20015;-55
2022/10/08 00:59:02;;;;;;;11.57;3.83;;;;;;;;;;5091940;28;20024;-55
2022/10/08 01:01:28;;;;;;;12.80;3.78;;;;;;;;;;5092562;28;20016;-55
2022/10/08 01:03:54;;;;;;;18.95;3.67;;;;;;;;;;5091704;28;20360;-55
2022/10/08 01:06:26;;;;;;;12.25;3.72;;;;;;;;;;5086505;28;20147;-54
2022/10/08 01:09:10;;;;;;;7.10;3.28;;;;;;;;;;5088756;28;20274;-54
2022/10/08 01:11:41;;;;;;;19.70;4.43;;;;;;;;;;5093665;28;20215;-55
2022/10/08 01:14:22;;;;;;;14.00;3.88;;;;;;;;;;5094617;28;20077;-55
2022/10/08 01:16:54;;;;;;;20.05;3.92;;;;;;;;;;5092162;28;20124;-54
2022/10/08 01:19:34;;;;;;;16.15;3.20;;;;;;;;;;5088129;28;20028;-55
2022/10/08 01:21:59;;;;;;;;;;;;;;;;;;5094417;28;20543;-54
2022/10/08 01:27:30;;;;;;;19.48;4.85;;;;;;;;;;5085323;28;20062;-55
2022/10/08 01:29:56;;;;;;;13.18;4.35;;;;;;;;;;5094626;28;20384;-54
2022/10/08 01:32:22;;;;;;;22.48;5.10;;;;;;;;;;5087758;28;20028;-54
2022/10/08 01:34:51;;;;;;;15.25;4.50;;;;;;;;;;5092353;28;20016;-54
2022/10/08 01:37:21;;;;;;;12.90;4.18;;;;;;;;;;5085111;28;20134;-54
2022/10/08 01:39:47;;;;;;;19.77;5.30;;;;;;;;;;5065397;28;20023;-55
2022/10/08 01:42:12;;;;;;;13.88;4.88;;;;;;;;;;5089479;28;20024;-54
2022/10/08 01:44:39;;;;;;;18.77;5.43;;;;;;;;;;5097462;28;20381;-55
2022/10/08 01:47:06;;;;;;;23.15;5.55;;;;;;;;;;5096478;28;20040;-54
2022/10/08 01:49:32;;;;;;;15.25;5.45;;;;;;;;;;5094559;28;20026;-54
2022/10/08 01:52:03;;;;;;;12.45;4.32;;;;;;;;;;5088457;28;20027;-54
2022/10/08 01:54:29;;;;;;;15.05;5.03;;;;;;;;;;5093113;28;20095;-54
2022/10/08 01:56:54;;;;;;;17.80;4.95;;;;;;;;;;5087551;28;20248;-54
2022/10/08 01:59:21;;;;;;;12.35;4.20;;;;;;;;;;5102189;28;20425;-55
2022/10/08 02:01:53;;;;;;;15.07;5.30;;;;;;;;;;5083345;28;20099;-54
2022/10/08 02:04:33;;;;;;;18.50;5.32;;;;;;;;;;5084512;28;20039;-55
2022/10/08 02:06:59;;;;;;;;;;;;;;;;;;5087693;28;20028;-54
2022/10/08 02:09:24;;;;;;;4.57;2.90;;;;;;;;;;5095386;28;19914;-55
2022/10/08 02:11:50;;;;;;;15.88;5.13;;;;;;;;;;5092880;28;20337;-55
2022/10/08 02:14:15;;;;;;;15.82;4.07;;;;;;;;;;5088587;28;20027;-54
2022/10/08 02:16:41;;;;;;;13.75;4.38;;;;;;;;;;5092160;28;20501;-53
2022/10/08 02:19:11;;;;;;;19.08;4.90;;;;;;;;;;5093941;28;20024;-54
2022/10/08 02:21:36;;;;;;;13.20;4.13;;;;;;;;;;5088582;28;20535;-55
2022/10/08 02:24:12;;;;;;;21.27;5.20;;;;;;;;;;5086886;28;20048;-55
2022/10/08 02:26:39;;;;;;;19.60;4.57;;;;;;;;;;5091777;28;20063;-55
2022/10/08 02:29:09;;;;;;;13.50;4.75;;;;;;;;;;5089865;28;20071;-55
2022/10/08 02:31:43;;;;;;;10.02;4.05;;;;;;;;;;5090016;28;20020;-55
2022/10/08 02:34:26;;;;;;;16.02;4.70;;;;;;;;;;5091066;28;20025;-56
2022/10/08 02:36:53;;;;;;;13.32;4.60;;;;;;;;;;5067842;28;20031;-55
2022/10/08 02:39:18;;;;;;;13.80;4.25;;;;;;;;;;5098952;28;20027;-55
2022/10/08 02:41:45;;;;;;;17.30;5.00;;;;;;;;;;5090794;28;20020;-55
2022/10/08 02:44:31;;;;;;;21.23;4.95;;;;;;;;;;5074085;28;20036;-54
2022/10/08 02:46:57;;;;;;;18.35;4.38;;;;;;;;;;5089723;28;20489;-54
2022/10/08 02:49:26;;;;;;;17.00;4.03;;;;;;;;;;5091460;28;20016;-55
2022/10/08 02:51:52;;;;;;;16.90;4.20;;;;;;;;;;5090506;28;20055;-55
2022/10/08 02:54:18;;;;;;;12.13;3.88;;;;;;;;;;5096395;28;20073;-55
2022/10/08 02:56:46;;;;;;;10.38;3.65;;;;;;;;;;5092817;28;20016;-55
2022/10/08 02:59:12;;;;;;;11.93;3.85;;;;;;;;;;5092722;28;20043;-55
2022/10/08 03:01:43;;;;;;;11.63;3.65;;;;;;;;;;5081648;28;20009;-56
2022/10/08 03:04:10;;;;;;;11.60;3.97;;;;;;;;;;5094739;28;20044;-56
2022/10/08 03:06:35;;;;;;;15.95;3.53;;;;;;;;;;5095224;28;20114;-54
2022/10/08 03:09:00;;;;;;;19.33;4.63;;;;;;;;;;5088178;28;20169;-55
2022/10/08 03:11:26;;;;;;;10.07;3.83;;;;;;;;;;5092124;28;20027;-53
2022/10/08 03:13:51;;;;;;;10.32;3.80;;;;;;;;;;5081135;28;20028;-56
2022/10/08 03:16:18;;;;;;;19.42;3.95;;;;;;;;;;5089003;28;20024;-56
2022/10/08 03:18:43;;;;;;;12.20;3.53;;;;;;;;;;5091655;28;20369;-55
2022/10/08 03:21:09;;;;;;;11.85;4.00;;;;;;;;;;5080354;28;20028;-56
2022/10/08 03:23:34;;;;;;;16.80;3.80;;;;;;;;;;5084643;28;20025;-56
2022/10/08 03:25:59;;;;;;;11.40;3.35;;;;;;;;;;5092040;28;20020;-56
2022/10/08 03:28:24;;;;;;;11.27;3.97;;;;;;;;;;5091054;28;20043;-56
2022/10/08 03:30:49;;;;;;;13.50;3.55;;;;;;;;;;5097116;28;20077;-56
2022/10/08 03:33:15;;;;;;;12.18;3.67;;;;;;;;;;5089667;28;20076;-55
2022/10/08 03:35:44;;;;;;;9.27;3.15;;;;;;;;;;5094279;28;20035;-55
2022/10/08 03:38:09;;;;;;;13.55;3.45;;;;;;;;;;5090248;28;20024;-56
2022/10/08 03:40:34;;;;;;;13.25;3.58;;;;;;;;;;5087020;28;20069;-56
2022/10/08 03:43:00;;;;;;;14.88;4.00;;;;;;;;;;5093529;28;20024;-56
2022/10/08 03:45:25;;;;;;;17.73;4.10;;;;;;;;;;5083998;28;20069;-55
2022/10/08 03:47:51;;;;;;;16.92;4.40;;;;;;;;;;5087522;28;20032;-54
2022/10/08 03:50:16;;;;;;;11.48;3.42;;;;;;;;;;5090992;28;20020;-55
2022/10/08 03:52:41;;;;;;;10.95;4.28;;;;;;;;;;5092609;28;20030;-56
2022/10/08 03:55:07;;;;;;;10.23;3.83;;;;;;;;;;5096806;28;20343;-55
2022/10/08 03:57:32;;;;;;;11.30;4.03;;;;;;;;;;5091820;28;20412;-55
2022/10/08 03:59:57;;;;;;;16.58;4.13;;;;;;;;;;5085441;28;20012;-55
2022/10/08 04:02:23;;;;;;;12.30;4.00;;;;;;;;;;5091809;28;20030;-57
2022/10/08 04:04:48;;;;;;;14.38;3.65;;;;;;;;;;5085128;28;20081;-53
2022/10/08 04:07:13;;;;;;;9.13;3.45;;;;;;;;;;5091727;28;20040;-55
2022/10/08 04:09:38;;;;;;;13.75;4.30;;;;;;;;;;5092180;28;20019;-57
2022/10/08 04:12:04;;;;;;;8.95;3.22;;;;;;;;;;5088033;28;20028;-55
2022/10/08 04:14:29;;;;;;;14.82;4.43;;;;;;;;;;5091320;28;20016;-58
2022/10/08 04:16:54;;;;;;;15.63;3.60;;;;;;;;;;5086811;28;20382;-55
2022/10/08 04:19:19;;;;;;;13.13;4.15;;;;;;;;;;5088939;28;20219;-55
2022/10/08 04:21:45;;;;;;;10.73;4.28;;;;;;;;;;5093758;28;20096;-56
2022/10/08 04:24:10;;;;;;;17.92;3.95;;;;;;;;;;5088421;28;20024;-56
2022/10/08 04:26:35;;;;;;;13.82;4.18;;;;;;;;;;5092973;28;20059;-56
2022/10/08 04:29:00;;;;;;;13.75;3.80;;;;;;;;;;5089102;28;20393;-55
2022/10/08 04:31:26;;;;;;;14.43;4.38;;;;;;;;;;5081922;28;20434;-56
2022/10/08 04:33:51;;;;;;;18.17;4.25;;;;;;;;;;5084131;28;20085;-54
2022/10/08 04:36:20;;;;;;;15.25;4.03;;;;;;;;;;5096698;28;20028;-55
2022/10/08 04:38:45;;;;;;;13.75;4.38;;;;;;;;;;5086633;28;20470;-55
2022/10/08 04:41:14;;;;;;;12.88;4.13;;;;;;;;;;5087255;28;20026;-55
2022/10/08 04:43:40;;;;;;;10.38;4.13;;;;;;;;;;5091556;28;20106;-55
2022/10/08 04:46:06;;;;;;;16.00;4.43;;;;;;;;;;5091465;28;20096;-55
2022/10/08 04:48:31;;;;;;;14.70;4.72;;;;;;;;;;5089692;28;20039;-55
2022/10/08 04:50:59;;;;;;;14.75;4.97;;;;;;;;;;5092117;28;20416;-54
2022/10/08 04:53:24;;;;;;;13.20;3.70;;;;;;;;;;5090680;28;20024;-55
2022/10/08 04:55:50;;;;;;;14.93;3.97;;;;;;;;;;5086992;28;20012;-56
2022/10/08 04:58:15;;;;;;;9.38;4.38;;;;;;;;;;5087270;28;20111;-56
2022/10/08 05:00:41;;;;;;;10.50;4.47;;;;;;;;;;5092415;28;20020;-55
2022/10/08 05:03:06;;;;;;;8.23;4.22;;;;;;;;;;5088346;28;20093;-55
2022/10/08 05:05:31;;;;;;;14.07;4.88;;;;;;;;;;5089475;28;20036;-55
2022/10/08 05:07:56;;;;;;;13.45;4.22;;;;;;;;;;5083411;28;20038;-56
2022/10/08 05:10:22;;;;;;;18.00;4.03;;;;;;;;;;5090482;28;20020;-55
2022/10/08 05:12:48;;;;;;;11.98;3.90;;;;;;;;;;5085374;28;20066;-55
2022/10/08 05:15:13;;;;;;;9.65;4.18;;;;;;;;;;5093992;28;20023;-55
2022/10/08 05:17:38;;;;;;;8.20;4.20;;;;;;;;;;5087250;28;20278;-56
2022/10/08 05:20:04;;;;;;;8.32;3.70;;;;;;;;;;5089102;28;20550;-53
2022/10/08 05:22:29;;;;;;;11.50;3.78;;;;;;;;;;5081779;28;20028;-55
2022/10/08 05:24:54;;;;;;;7.75;3.60;;;;;;;;;;5082430;28;20082;-56
2022/10/08 05:27:19;;;;;;;17.00;4.82;;;;;;;;;;5089902;28;20078;-55
2022/10/08 05:29:44;;;;;;;19.35;4.85;;;;;;;;;;5091673;28;20028;-53
2022/10/08 05:32:10;;;;;;;13.68;5.13;;;;;;;;;;5084873;28;20042;-55
2022/10/08 05:34:35;;;;;;;10.23;5.22;;;;;;;;;;5091129;28;20020;-55
2022/10/08 05:37:00;;;;;;;17.13;5.45;;;;;;;;;;5084155;28;20046;-55
2022/10/08 05:39:25;;;;;;;11.75;4.70;;;;;;;;;;5087005;28;20067;-52
2022/10/08 05:41:52;;;;;;;11.52;4.50;;;;;;;;;;5096531;28;20024;-54
2022/10/08 05:44:17;;;;;;;15.27;5.70;;;;;;;;;;5087294;28;20020;-55
2022/10/08 05:46:42;;;;;;;16.73;5.80;;;;;;;;;;5094581;28;20058;-54
2022/10/08 05:49:08;;;;;;;14.85;5.97;;;;;;;;;;5086308;28;20025;-54
2022/10/08 05:51:33;;;;;;;9.88;4.57;;;;;;;;;;5084333;28;20070;-54
2022/10/08 05:53:58;;;;;;;18.23;5.28;;;;;;;;;;5099190;28;20023;-54
2022/10/08 05:56:24;;;;;;;17.65;5.85;;;;;;;;;;5087604;28;20016;-55
2022/10/08 05:58:49;;;;;;;18.63;5.32;;;;;;;;;;5085242;28;20061;-54
2022/10/08 06:01:16;;;;;;;25.23;6.45;;;;;;;;;;5089925;28;20019;-55
2022/10/08 06:03:41;;;;;;;13.27;5.70;;;;;;;;;;5088524;28;20028;-56
2022/10/08 06:06:07;;;;;;;16.67;5.60;;;;;;;;;;5090396;28;20490;-54
2022/10/08 06:08:33;;;;;;;11.13;5.03;;;;;;;;;;5088211;28;20462;-53
2022/10/08 06:10:58;;;;;;;17.35;5.40;;;;;;;;;;5093900;28;20385;-54
2022/10/08 06:13:23;;;;;;;10.77;5.07;;;;;;;;;;5093565;28;20674;-55
2022/10/08 06:15:58;;;;;;;8.40;4.18;;;;;;;;;;5092244;28;20019;-54
2022/10/08 06:18:24;;;;;;;15.23;5.05;;;;;;;;;;5091325;28;20106;-56
2022/10/08 06:20:49;;;;;;;13.98;4.50;;;;;;;;;;5092300;27;20111;-57
2022/10/08 06:23:14;;;;;;;15.13;5.80;;;;;;;;;;5092189;28;20014;-54
2022/10/08 06:25:40;;;;;;;11.25;5.78;;;;;;;;;;5097558;28;20035;-57
2022/10/08 06:28:05;;;;;;;13.38;5.90;;;;;;;;;;5091317;28;20047;-53
2022/10/08 06:30:30;;;;;;;11.73;5.68;;;;;;;;;;5094407;28;20020;-53
2022/10/08 06:32:55;;;;;;;13.20;6.30;;;;;;;;;;5089356;28;20670;-54
2022/10/08 06:35:21;;;;;;;13.43;6.22;;;;;;;;;;5088249;28;20032;-54
2022/10/08 06:37:46;;;;;;;13.93;5.53;;;;;;;;;;5096624;28;20533;-54
2022/10/08 06:40:12;;;;;;;11.80;6.60;;;;;;;;;;5092474;28;20433;-55
2022/10/08 06:42:37;;;;;;;10.35;6.07;;;;;;;;;;5089077;28;20024;-57
2022/10/08 06:45:02;;;;;;;11.55;6.25;;;;;;;;;;5089760;28;20343;-54
2022/10/08 06:47:27;;;;;;;11.13;5.55;;;;;;;;;;5088775;28;20505;-54
2022/10/08 06:49:52;;;;;;;13.98;6.63;;;;;;;;;;5089327;28;20443;-57
2022/10/08 06:52:18;;;;;;;11.93;5.45;;;;;;;;;;5101167;28;20787;-56
2022/10/08 06:54:43;;;;;;;16.45;6.25;;;;;;;;;;5094487;28;20473;-55
2022/10/08 06:57:08;;;;;;;14.07;6.25;;;;;;;;;;5094971;28;20386;-56
2022/10/08 06:59:33;;;;;;;12.50;5.03;;;;;;;;;;5088922;28;20518;-54
2022/10/08 07:01:59;;;;;;;14.38;6.05;;;;;;;;;;5086880;28;20058;-55
2022/10/08 07:04:24;;;;;;;12.38;4.70;;;;;;;;;;5097555;28;20039;-56
2022/10/08 07:06:49;;;;;;;14.82;5.95;;;;;;;;;;5089083;28;20077;-54
2022/10/08 07:09:14;;;;;;;12.95;4.63;;;;;;;;;;5094781;28;20363;-56
2022/10/08 07:11:40;;;;;;;13.07;5.40;;;;;;;;;;5086986;28;20753;-60
2022/10/08 07:14:05;;;;;;;14.48;5.00;;;;;;;;;;5099643;28;20081;-55
2022/10/08 07:16:30;;;;;;;10.20;4.63;;;;;;;;;;5095413;28;20024;-54
2022/10/08 07:18:57;;;;;;;13.95;5.82;;;;;;;;;;5092135;28;20069;-57
2022/10/08 07:21:22;;;;;;;13.30;7.05;;;;;;;;;;5085948;28;20033;-55
2022/10/08 07:23:47;;;;;;;14.73;5.60;;;;;;;;;;5082346;28;20022;-57
2022/10/08 07:26:13;;;;;;;11.07;5.57;;;;;;;;;;5090441;28;20114;-55
2022/10/08 07:28:40;;;;;;;14.75;6.32;;;;;;;;;;5087876;28;20024;-56
2022/10/08 07:31:15;;;;;;;16.30;5.60;;;;;;;;;;5087187;28;20035;-55
2022/10/08 07:33:40;;;;;;;9.75;5.43;;;;;;;;;;5076658;28;20424;-55
2022/10/08 07:36:09;;;;;;;10.40;5.63;;;;;;;;;;5081174;28;20054;-57
2022/10/08 07:38:34;;;;;;;13.93;6.35;;;;;;;;;;5076891;28;20024;-56
2022/10/08 07:41:00;;;;;;;17.65;6.50;;;;;;;;;;5080540;28;20035;-56
2022/10/08 07:43:25;;;;;;;21.52;5.80;;;;;;;;;;5086214;28;20385;-56
2022/10/08 07:45:50;;;;;;;17.00;5.13;;;;;;;;;;5092416;28;20115;-56
2022/10/08 07:48:18;;;;;;;11.80;4.20;;;;;;;;;;5086446;28;20088;-56
2022/10/08 07:50:43;;;;;;;16.17;4.32;;;;;;;;;;5088463;28;20099;-57
2022/10/08 07:53:08;;;;;;;7.78;3.67;;;;;;;;;;5082675;28;20112;-55
2022/10/08 07:55:33;;;;;;;9.95;4.70;;;;;;;;;;5093093;28;20119;-55
2022/10/08 07:57:59;;;;;;;10.65;4.53;;;;;;;;;;5089350;28;20562;-55
2022/10/08 08:00:24;;;;;;;11.95;5.03;;;;;;;;;;5089316;28;20020;-56
2022/10/08 08:02:49;;;;;;;8.63;3.90;;;;;;;;;;5087019;28;20028;-55
2022/10/08 08:05:15;;;;;;;10.02;4.97;;;;;;;;;;5096947;28;20514;-56
2022/10/08 08:07:40;;;;;;;7.97;3.83;;;;;;;;;;5086173;28;20122;-55
2022/10/08 08:10:05;;;;;;;18.45;5.35;;;;;;;;;;5090957;28;20023;-55
2022/10/08 08:12:31;;;;;;;8.48;3.83;;;;;;;;;;5087165;28;20518;-54
2022/10/08 08:14:56;;;;;;;17.92;5.35;;;;;;;;;;5080228;28;20020;-55
2022/10/08 08:17:21;;;;;;;14.27;4.32;;;;;;;;;;5081836;28;20627;-55
2022/10/08 08:19:46;;;;;;;16.58;5.72;;;;;;;;;;5089471;28;20125;-58
2022/10/08 08:22:12;;;;;;;11.68;5.30;;;;;;;;;;5091298;28;20080;-55
2022/10/08 08:24:37;;;;;;;13.82;6.07;;;;;;;;;;5085868;28;20024;-57
2022/10/08 08:27:02;;;;;;;20.88;5.05;;;;;;;;;;5098787;28;20028;-55
2022/10/08 08:29:27;;;;;;;10.98;4.55;;;;;;;;;;5106637;27;20036;-56
2022/10/08 08:31:53;;;;;;;14.93;5.05;;;;;;;;;;5085250;28;20023;-56
2022/10/08 08:34:22;;;;;;;16.35;4.47;;;;;;;;;;5091267;28;20490;-55
2022/10/08 08:36:50;;;;;;;18.35;5.45;;;;;;;;;;5086894;28;20020;-57
2022/10/08 08:39:18;;;;;;;10.05;4.53;;;;;;;;;;5080189;28;20024;-56
2022/10/08 08:41:56;;;;;;;14.73;5.65;;;;;;;;;;5091622;28;20031;-57
2022/10/08 08:44:28;;;;;;;11.65;4.88;;;;;;;;;;5085432;28;20129;-56
2022/10/08 08:46:55;;;;;;;10.07;4.63;;;;;;;;;;5080590;28;20489;-53
2022/10/08 08:49:37;;;;;;;12.80;4.65;;;;;;;;;;5090219;28;20039;-55
2022/10/08 08:52:02;;;;;;;15.27;4.88;;;;;;;;;;5088652;28;20020;-56
2022/10/08 08:54:28;;;;;;;9.95;4.78;;;;;;;;;;5091674;28;20862;-58
2022/10/08 08:56:54;;;;;;;13.63;4.97;;;;;;;;;;5086707;28;20545;-56
2022/10/08 08:59:20;;;;;;;14.48;4.68;;;;;;;;;;5081913;28;20023;-56
2022/10/08 09:01:45;;;;;;;12.95;4.32;;;;;;;;;;5087959;28;20023;-56
2022/10/08 09:04:14;;;;;;;14.43;4.25;;;;;;;;;;5076494;28;20046;-55
2022/10/08 09:06:39;;;;;;;10.38;4.40;;;;;;;;;;5081539;28;20157;-55
2022/10/08 09:09:23;;;;;;;8.65;4.18;;;;;;;;;;5081215;28;20046;-56
2022/10/08 09:11:48;;;;;;;12.52;4.72;;;;;;;;;;5085108;28;20043;-56
2022/10/08 09:14:25;;;;;;;10.52;4.68;;;;;;;;;;5095427;28;20055;-56
2022/10/08 09:16:51;;;;;;;13.63;4.80;;;;;;;;;;5088988;28;20048;-56
2022/10/08 09:19:16;;;;;;;10.20;3.90;;;;;;;;;;5095681;28;20059;-56
2022/10/08 09:21:41;;;;;;;11.40;4.18;;;;;;;;;;5088152;28;20435;-54
2022/10/08 09:24:06;;;;;;;14.20;4.75;;;;;;;;;;5089179;28;20024;-55
2022/10/08 09:26:32;;;;;;;9.02;3.90;;;;;;;;;;5100389;28;20040;-56
2022/10/08 09:28:58;;;;;;;13.45;4.38;;;;;;;;;;5092969;28;20028;-56
2022/10/08 09:31:26;;;;;;;12.60;4.32;;;;;;;;;;5095014;28;20027;-56
2022/10/08 09:33:52;;;;;;;14.48;5.47;;;;;;;;;;5083236;28;20035;-55
2022/10/08 09:36:27;;;;;;;11.60;4.32;;;;;;;;;;5093721;28;20020;-56
2022/10/08 09:38:56;;;;;;;8.50;4.80;;;;;;;;;;5085113;28;20058;-55
2022/10/08 09:41:23;;;;;;;15.32;4.72;;;;;;;;;;5095283;28;20070;-55
2022/10/08 09:44:07;;;;;;;16.52;5.03;;;;;;;;;;5093112;28;20020;-55
2022/10/08 09:46:32;;;;;;;9.55;4.53;;;;;;;;;;5080329;28;20032;-56
2022/10/08 09:49:16;;;;;;;11.65;4.90;;;;;;;;;;5090012;28;20393;-56
2022/10/08 09:51:41;;;;;;;15.23;5.20;;;;;;;;;;5095210;28;20437;-55
2022/10/08 09:54:08;;;;;;;14.90;4.80;;;;;;;;;;5084774;28;20071;-54
2022/10/08 09:56:33;;;;;;;16.45;5.95;;;;;;;;;;5087828;28;20024;-54
2022/10/08 09:58:59;;;;;;;18.38;5.72;;;;;;;;;;5091141;28;20488;-55
2022/10/08 10:01:25;;;;;;;17.73;6.22;;;;;;;;;;5094813;28;20019;-55
2022/10/08 10:03:52;;;;;;;15.77;5.53;;;;;;;;;;5091109;28;20040;-55
2022/10/08 10:06:31;;;;;;;18.15;5.22;;;;;;;;;;5082981;28;20027;-55
2022/10/08 10:09:06;;;;;;;11.98;5.40;;;;;;;;;;5091570;28;20051;-55
2022/10/08 10:11:33;;;;;;;11.57;4.80;;;;;;;;;;5085829;28;20039;-55
2022/10/08 10:14:00;;;;;;;14.38;4.82;;;;;;;;;;5088404;28;20425;-56
2022/10/08 10:16:32;;;;;;;11.57;4.97;;;;;;;;;;5075568;28;20094;-56
2022/10/08 10:19:06;;;;;;;17.25;5.00;;;;;;;;;;5092783;28;20024;-55
2022/10/08 10:21:45;;;;;;;19.60;5.35;;;;;;;;;;5092336;28;20047;-55
2022/10/08 10:24:11;;;;;;;13.05;5.20;;;;;;;;;;5094909;28;20637;-56
2022/10/08 10:26:36;;;;;;;15.45;4.55;;;;;;;;;;5091413;28;20032;-54
2022/10/08 10:29:05;;;;;;;11.48;4.28;;;;;;;;;;5080664;28;20031;-56
2022/10/08 10:31:33;;;;;;;12.48;4.10;;;;;;;;;;5091542;28;20021;-55
2022/10/08 10:34:03;;;;;;;13.30;4.38;;;;;;;;;;5092539;28;20027;-55
2022/10/08 10:36:30;;;;;;;18.80;4.40;;;;;;;;;;5091229;28;20031;-56
2022/10/08 10:39:13;;;;;;;12.38;3.58;;;;;;;;;;5091295;28;20304;-56
2022/10/08 10:41:43;;;;;;;14.45;4.07;;;;;;;;;;5095839;28;20043;-56
2022/10/08 10:44:15;;;;;;;12.82;3.45;;;;;;;;;;5091152;28;20082;-56
2022/10/08 10:46:41;;;;;;;9.82;3.83;;;;;;;;;;5090533;28;20034;-56
2022/10/08 10:49:15;;;;;;;10.65;3.65;;;;;;;;;;5088088;28;20024;-55
2022/10/08 10:51:53;;;;;;;13.63;4.20;;;;;;;;;;5087697;28;20527;-55
2022/10/08 10:54:21;;;;;;;14.57;3.40;;;;;;;;;;5085986;28;20059;-54
2022/10/08 10:56:48;;;;;;;11.75;4.15;;;;;;;;;;5098382;28;20016;-56
2022/10/08 10:59:14;;;;;;;11.32;3.17;;;;;;;;;;5097725;28;20088;-55
2022/10/08 11:01:45;;;;;;;11.60;3.38;;;;;;;;;;5089227;28;20180;-53
2022/10/08 11:04:38;;;;;;;12.77;3.65;;;;;;;;;;5089093;28;20050;-54
2022/10/08 11:07:24;;;;;;;15.05;3.92;;;;;;;;;;5087155;28;20040;-54
2022/10/08 11:09:53;;;;;;;9.80;3.22;;;;;;;;;;5087298;28;20521;-54
2022/10/08 11:12:27;;;;;;;12.48;3.63;;;;;;;;;;5085907;28;20136;-54
2022/10/08 11:14:58;;;;;;;12.95;3.55;;;;;;;;;;5089967;28;20388;-54
2022/10/08 11:17:32;;;;;;;10.57;3.85;;;;;;;;;;5104521;27;20122;-54
2022/10/08 11:20:16;;;;;;;8.07;3.17;;;;;;;;;;5089184;28;20128;-54
2022/10/08 11:22:56;;;;;;;8.35;2.72;;;;;;;;;;5095763;28;20015;-54
2022/10/08 11:25:28;;;;;;;14.02;2.80;;;;;;;;;;5088024;28;21115;-56
2022/10/08 11:27:53;;;;;;;9.32;3.00;;;;;;;;;;5086312;28;20036;-56
2022/10/08 11:30:27;;;;;;;12.35;4.20;;;;;;;;;;5096095;28;20491;-56
2022/10/08 11:32:53;;;;;;;9.57;2.50;;;;;;;;;;5088630;28;20019;-56
2022/10/08 11:35:24;;;;;;;12.13;2.85;;;;;;;;;;5083658;28;20154;-55
2022/10/08 11:38:08;;;;;;;10.18;2.92;;;;;;;;;;5091420;28;20844;-57
2022/10/08 11:40:47;;;;;;;9.57;3.10;;;;;;;;;;5092078;28;20068;-55
2022/10/08 11:43:15;;;;;;;6.97;2.83;;;;;;;;;;5091787;28;20020;-57
2022/10/08 11:45:41;;;;;;;11.60;3.10;;;;;;;;;;5088985;28;20482;-54
2022/10/08 11:48:22;;;;;;;10.20;2.92;;;;;;;;;;5086967;28;20047;-54
2022/10/08 11:50:47;;;;;;;8.73;2.78;;;;;;;;;;5091367;28;20027;-54
2022/10/08 11:53:17;;;;;;;11.55;3.17;;;;;;;;;;5085074;28;20069;-56
2022/10/08 11:55:52;;;;;;;6.60;2.40;;;;;;;;;;5079903;28;20493;-54
2022/10/08 11:58:22;;;;;;;6.57;2.47;;;;;;;;;;5089333;28;20076;-54
2022/10/08 12:00:47;;;;;;;10.10;2.42;;;;;;;;;;5079655;28;20027;-54
2022/10/08 12:03:23;;;;;;;7.28;2.65;;;;;;;;;;5087293;28;20016;-56
2022/10/08 12:05:51;;;;;;;8.15;2.58;;;;;;;;;;5088849;28;20133;-54
2022/10/08 12:08:35;;;;;;;8.50;2.60;;;;;;;;;;5085708;28;20038;-55
2022/10/08 12:11:18;;;;;;;9.40;2.00;;;;;;;;;;5088714;28;20039;-54
2022/10/08 12:13:45;;;;;;;8.00;2.20;;;;;;;;;;5083564;28;20028;-53
2022/10/08 12:16:10;;;;;;;8.05;2.00;;;;;;;;;;5090812;28;20078;-55
2022/10/08 12:18:42;;;;;;;7.80;2.00;;;;;;;;;;5074145;28;20027;-55
2022/10/08 12:21:16;;;;;;;5.70;1.70;;;;;;;;;;5089545;28;20027;-54
2022/10/08 12:23:42;;;;;;;7.80;1.98;;;;;;;;;;5090872;28;20469;-57
2022/10/08 12:26:08;;;;;;;6.45;1.80;;;;;;;;;;5087346;28;20107;-54
2022/10/08 12:28:36;;;;;;;6.57;1.63;;;;;;;;;;5084373;28;20325;-55
2022/10/08 12:31:16;;;;;;;6.97;1.88;;;;;;;;;;5085543;28;20051;-54
2022/10/08 12:33:41;;;;;;;11.40;1.75;;;;;;;;;;5084841;28;20052;-55
2022/10/08 12:36:18;;;;;;;9.18;2.25;;;;;;;;;;5087307;28;20087;-54
2022/10/08 12:38:57;;;;;;;6.50;1.90;;;;;;;;;;5089126;28;20024;-55
2022/10/08 12:41:33;;;;;;;4.32;1.60;;;;;;;;;;5081768;28;20043;-55
2022/10/08 12:44:02;;;;;;;4.82;2.00;;;;;;;;;;5090914;28;20022;-57
2022/10/08 12:46:40;;;;;;;5.47;1.70;;;;;;;;;;5090759;28;20031;-56
2022/10/08 12:49:24;;;;;;;4.30;1.50;;;;;;;;;;5092220;28;20039;-56
2022/10/08 12:51:58;;;;;;;8.95;2.00;;;;;;;;;;5093287;28;20024;-55
2022/10/08 12:54:25;;;;;;;5.20;1.85;;;;;;;;;;5085674;28;20015;-56
2022/10/08 12:56:50;;;;;;;5.32;1.70;;;;;;;;;;5089791;28;20028;-54
2022/10/08 12:59:16;;;;;;;5.85;1.80;;;;;;;;;;5096394;28;20735;-56
2022/10/08 13:01:41;;;;;;;6.15;1.88;;;;;;;;;;5091575;28;20063;-54
2022/10/08 13:04:28;;;;;;;4.82;1.60;;;;;;;;;;5091205;28;20135;-56
2022/10/08 13:06:54;;;;;;;4.68;2.40;;;;;;;;;;5092630;28;20121;-54
2022/10/08 13:09:28;;;;;;;5.47;1.70;;;;;;;;;;5091027;28;20024;-54
2022/10/08 13:11:53;;;;;;;6.07;2.05;;;;;;;;;;5093840;28;20103;-55
2022/10/08 13:14:25;;;;;;;6.20;2.03;;;;;;;;;;5095433;28;20418;-54
2022/10/08 13:16:51;;;;;;;13.27;2.92;;;;;;;;;;5086788;28;20458;-56
2022/10/08 13:19:16;;;;;;;8.38;2.58;;;;;;;;;;5088432;28;20054;-56
2022/10/08 13:21:52;;;;;;;9.55;2.50;;;;;;;;;;5090850;28;20096;-56
2022/10/08 13:24:17;;;;;;;3.45;1.63;;;;;;;;;;5090842;28;20116;-53
2022/10/08 13:26:43;;;;;;;4.78;1.75;;;;;;;;;;5093303;28;20951;-55
2022/10/08 13:29:21;;;;;;;4.80;1.83;;;;;;;;;;5092823;28;20497;-56
2022/10/08 13:31:58;;;;;;;10.93;2.20;;;;;;;;;;5097455;28;20020;-56
2022/10/08 13:34:23;;;;;;;8.52;1.80;;;;;;;;;;5082717;28;20058;-56
2022/10/08 13:36:53;;;;;;;4.53;1.88;;;;;;;;;;5088559;28;20047;-54
2022/10/08 13:39:19;;;;;;;6.10;2.42;;;;;;;;;;5079033;28;20011;-55
2022/10/08 13:41:48;;;;;;;8.98;2.08;;;;;;;;;;5089773;28;20028;-55
2022/10/08 13:44:13;;;;;;;7.57;2.08;;;;;;;;;;5088917;28;20024;-55
2022/10/08 13:46:38;;;;;;;4.50;1.55;;;;;;;;;;5096708;28;20032;-55
2022/10/08 13:49:14;;;;;;;9.85;1.88;;;;;;;;;;5084441;28;20025;-53
2022/10/08 13:51:39;;;;;;;12.38;2.25;;;;;;;;;;5089810;28;20028;-52
2022/10/08 13:54:04;;;;;;;7.88;1.60;;;;;;;;;;5086997;28;20089;-54
2022/10/08 13:56:30;;;;;;;7.57;1.90;;;;;;;;;;5088646;28;20041;-52
2022/10/08 13:58:55;;;;;;;5.78;1.80;;;;;;;;;;5084997;28;20111;-55
2022/10/08 14:01:20;;;;;;;7.07;1.70;;;;;;;;;;5089307;28;20019;-57
2022/10/08 14:03:45;;;;;;;3.85;1.42;;;;;;;;;;5085040;28;20709;-56
2022/10/08 14:06:11;;;;;;;5.05;1.63;;;;;;;;;;5080439;28;20031;-55
2022/10/08 14:08:36;;;;;;;7.35;1.88;;;;;;;;;;5085799;28;20598;-55
2022/10/08 14:11:01;;;;;;;4.78;1.70;;;;;;;;;;5086327;28;20759;-55
2022/10/08 14:13:28;;;;;;;5.30;1.55;;;;;;;;;;5087939;28;20378;-53
2022/10/08 14:15:53;;;;;;;7.95;1.70;;;;;;;;;;5077795;28;20020;-54
2022/10/08 14:18:19;;;;;;;3.83;1.50;;;;;;;;;;5080958;28;20026;-58
2022/10/08 14:20:44;;;;;;;5.13;1.48;;;;;;;;;;5075268;28;20379;-56
2022/10/08 14:23:11;;;;;;;4.93;1.52;;;;;;;;;;5078829;28;20484;-55
2022/10/08 14:25:36;;;;;;;4.75;1.80;;;;;;;;;;5080477;28;20141;-57
2022/10/08 14:28:01;;;;;;;5.25;2.20;;;;;;;;;;5082689;28;20513;-56
2022/10/08 14:30:30;;;;;;;6.45;1.77;;;;;;;;;;5091975;28;20051;-55
2022/10/08 14:32:55;;;;;;;4.88;1.50;;;;;;;;;;5088448;28;20060;-54
2022/10/08 14:35:21;;;;;;;5.60;1.80;;;;;;;;;;5094555;28;20437;-55
2022/10/08 14:37:46;;;;;;;5.75;1.58;;;;;;;;;;5086043;28;20027;-55
2022/10/08 14:40:16;;;;;;;6.93;1.73;;;;;;;;;;5076640;28;20021;-55